sensor_id;sensor_type;location;lat;lon;timestamp;temperature;humidity
66928;DHT22;59882;45.624;11.698;2024-03-02T00:00:09;11.10;87.60
66928;DHT22;59882;45.624;11.698;2024-03-02T00:02:44;11.10;87.80
66928;DHT22;59882;45.624;11.698;2024-03-02T00:05:27;11.00;87.60
66928;DHT22;59882;45.624;11.698;2024-03-02T00:07:57;11.00;87.70
66928;DHT22;59882;45.624;11.698;2024-03-02T00:10:25;11.00;87.70
66928;DHT22;59882;45.624;11.698;2024-03-02T00:12:55;10.90;87.80
66928;DHT22;59882;45.624;11.698;2024-03-02T00:15:57;10.90;87.90
66928;DHT22;59882;45.624;11.698;2024-03-02T00:18:32;10.90;87.90
66928;DHT22;59882;45.624;11.698;2024-03-02T00:20:58;10.90;87.90
66928;DHT22;59882;45.624;11.698;2024-03-02T00:23:27;10.90;87.90
66928;DHT22;59882;45.624;11.698;2024-03-02T00:25:55;10.90;87.80
66928;DHT22;59882;45.624;11.698;2024-03-02T00:30:56;10.90;87.70
66928;DHT22;59882;45.624;11.698;2024-03-02T00:33:23;10.90;87.70
66928;DHT22;59882;45.624;11.698;2024-03-02T00:35:50;10.90;87.70
66928;DHT22;59882;45.624;11.698;2024-03-02T00:38:16;10.90;87.70
66928;DHT22;59882;45.624;11.698;2024-03-02T00:40:45;10.90;87.80
66928;DHT22;59882;45.624;11.698;2024-03-02T00:46:13;11.00;87.80
66928;DHT22;59882;45.624;11.698;2024-03-02T00:49:00;11.00;87.70
66928;DHT22;59882;45.624;11.698;2024-03-02T00:51:29;10.90;87.80
66928;DHT22;59882;45.624;11.698;2024-03-02T00:53:57;10.90;87.90
66928;DHT22;59882;45.624;11.698;2024-03-02T00:56:24;10.90;87.80
66928;DHT22;59882;45.624;11.698;2024-03-02T00:58:50;10.90;87.80
66928;DHT22;59882;45.624;11.698;2024-03-02T01:01:16;10.90;87.90
66928;DHT22;59882;45.624;11.698;2024-03-02T01:03:42;10.90;87.80
66928;DHT22;59882;45.624;11.698;2024-03-02T01:06:08;10.90;88.00
66928;DHT22;59882;45.624;11.698;2024-03-02T01:08:35;10.90;87.90
66928;DHT22;59882;45.624;11.698;2024-03-02T01:11:01;10.90;87.90
66928;DHT22;59882;45.624;11.698;2024-03-02T01:13:27;10.90;87.80
66928;DHT22;59882;45.624;11.698;2024-03-02T01:15:53;10.90;87.90
66928;DHT22;59882;45.624;11.698;2024-03-02T01:18:18;10.90;87.90
66928;DHT22;59882;45.624;11.698;2024-03-02T01:20:44;10.90;87.90
66928;DHT22;59882;45.624;11.698;2024-03-02T01:23:11;10.90;87.90
66928;DHT22;59882;45.624;11.698;2024-03-02T01:25:36;10.90;87.90
66928;DHT22;59882;45.624;11.698;2024-03-02T01:28:02;10.90;87.90
66928;DHT22;59882;45.624;11.698;2024-03-02T01:30:28;10.90;87.90
66928;DHT22;59882;45.624;11.698;2024-03-02T01:32:54;10.90;87.90
66928;DHT22;59882;45.624;11.698;2024-03-02T01:35:19;10.90;87.70
66928;DHT22;59882;45.624;11.698;2024-03-02T01:37:45;10.90;87.80
66928;DHT22;59882;45.624;11.698;2024-03-02T01:40:11;10.80;87.70
66928;DHT22;59882;45.624;11.698;2024-03-02T01:42:40;10.80;87.70
66928;DHT22;59882;45.624;11.698;2024-03-02T01:45:06;10.80;87.60
66928;DHT22;59882;45.624;11.698;2024-03-02T01:47:32;10.80;87.70
66928;DHT22;59882;45.624;11.698;2024-03-02T01:49:58;10.80;87.60
66928;DHT22;59882;45.624;11.698;2024-03-02T01:52:24;10.80;87.60
66928;DHT22;59882;45.624;11.698;2024-03-02T01:54:50;10.80;87.40
66928;DHT22;59882;45.624;11.698;2024-03-02T01:57:16;10.80;87.50
66928;DHT22;59882;45.624;11.698;2024-03-02T01:59:42;10.80;87.60
66928;DHT22;59882;45.624;11.698;2024-03-02T02:02:07;10.80;87.60
66928;DHT22;59882;45.624;11.698;2024-03-02T02:04:33;10.80;87.40
66928;DHT22;59882;45.624;11.698;2024-03-02T02:06:59;10.80;87.40
66928;DHT22;59882;45.624;11.698;2024-03-02T02:09:25;10.80;87.40
66928;DHT22;59882;45.624;11.698;2024-03-02T02:11:51;10.80;87.40
66928;DHT22;59882;45.624;11.698;2024-03-02T02:14:17;10.80;87.30
66928;DHT22;59882;45.624;11.698;2024-03-02T02:16:43;10.80;87.20
66928;DHT22;59882;45.624;11.698;2024-03-02T02:19:08;10.80;87.30
66928;DHT22;59882;45.624;11.698;2024-03-02T02:21:35;10.80;87.30
66928;DHT22;59882;45.624;11.698;2024-03-02T02:24:00;10.90;87.10
66928;DHT22;59882;45.624;11.698;2024-03-02T02:26:28;10.80;87.00
66928;DHT22;59882;45.624;11.698;2024-03-02T02:28:54;10.80;87.10
66928;DHT22;59882;45.624;11.698;2024-03-02T02:31:20;10.80;87.10
66928;DHT22;59882;45.624;11.698;2024-03-02T02:33:45;10.90;87.10
66928;DHT22;59882;45.624;11.698;2024-03-02T02:36:11;10.90;87.00
66928;DHT22;59882;45.624;11.698;2024-03-02T02:38:40;10.90;86.90
66928;DHT22;59882;45.624;11.698;2024-03-02T02:41:07;10.90;86.90
66928;DHT22;59882;45.624;11.698;2024-03-02T02:43:33;10.90;86.80
66928;DHT22;59882;45.624;11.698;2024-03-02T02:45:58;11.00;86.80
66928;DHT22;59882;45.624;11.698;2024-03-02T02:48:24;11.00;86.70
66928;DHT22;59882;45.624;11.698;2024-03-02T02:50:49;11.00;86.70
66928;DHT22;59882;45.624;11.698;2024-03-02T02:53:15;11.00;86.60
66928;DHT22;59882;45.624;11.698;2024-03-02T02:55:41;11.00;86.30
66928;DHT22;59882;45.624;11.698;2024-03-02T02:58:09;11.00;86.20
66928;DHT22;59882;45.624;11.698;2024-03-02T03:00:34;11.00;86.20
66928;DHT22;59882;45.624;11.698;2024-03-02T03:03:02;11.00;86.30
66928;DHT22;59882;45.624;11.698;2024-03-02T03:05:27;11.00;86.10
66928;DHT22;59882;45.624;11.698;2024-03-02T03:07:53;11.00;85.80
66928;DHT22;59882;45.624;11.698;2024-03-02T03:10:19;10.90;85.70
66928;DHT22;59882;45.624;11.698;2024-03-02T03:12:47;10.90;85.80
66928;DHT22;59882;45.624;11.698;2024-03-02T03:15:13;10.90;85.90
66928;DHT22;59882;45.624;11.698;2024-03-02T03:17:39;11.00;85.80
66928;DHT22;59882;45.624;11.698;2024-03-02T03:20:06;10.90;85.80
66928;DHT22;59882;45.624;11.698;2024-03-02T03:22:36;11.00;85.80
66928;DHT22;59882;45.624;11.698;2024-03-02T03:25:01;11.00;85.80
66928;DHT22;59882;45.624;11.698;2024-03-02T03:27:27;11.00;85.60
66928;DHT22;59882;45.624;11.698;2024-03-02T03:29:53;10.90;85.50
66928;DHT22;59882;45.624;11.698;2024-03-02T03:32:19;10.90;85.60
66928;DHT22;59882;45.624;11.698;2024-03-02T03:34:45;10.90;85.70
66928;DHT22;59882;45.624;11.698;2024-03-02T03:37:11;10.90;85.70
66928;DHT22;59882;45.624;11.698;2024-03-02T03:39:36;10.90;85.70
66928;DHT22;59882;45.624;11.698;2024-03-02T03:42:02;10.90;85.60
66928;DHT22;59882;45.624;11.698;2024-03-02T03:44:28;10.90;85.60
66928;DHT22;59882;45.624;11.698;2024-03-02T03:46:53;10.90;85.60
66928;DHT22;59882;45.624;11.698;2024-03-02T03:49:19;11.00;85.70
66928;DHT22;59882;45.624;11.698;2024-03-02T03:51:45;10.90;85.60
66928;DHT22;59882;45.624;11.698;2024-03-02T03:54:11;10.90;85.60
66928;DHT22;59882;45.624;11.698;2024-03-02T03:56:37;10.90;85.70
66928;DHT22;59882;45.624;11.698;2024-03-02T03:59:03;11.00;85.70
66928;DHT22;59882;45.624;11.698;2024-03-02T04:01:30;11.00;85.70
66928;DHT22;59882;45.624;11.698;2024-03-02T04:03:57;11.00;85.70
66928;DHT22;59882;45.624;11.698;2024-03-02T04:06:23;11.00;85.80
66928;DHT22;59882;45.624;11.698;2024-03-02T04:08:49;11.00;85.70
66928;DHT22;59882;45.624;11.698;2024-03-02T04:11:14;11.00;85.60
66928;DHT22;59882;45.624;11.698;2024-03-02T04:13:40;11.00;85.60
66928;DHT22;59882;45.624;11.698;2024-03-02T04:16:06;11.00;85.60
66928;DHT22;59882;45.624;11.698;2024-03-02T04:18:31;11.00;85.50
66928;DHT22;59882;45.624;11.698;2024-03-02T04:20:58;11.00;85.50
66928;DHT22;59882;45.624;11.698;2024-03-02T04:23:25;11.00;85.50
66928;DHT22;59882;45.624;11.698;2024-03-02T04:25:50;11.00;85.50
66928;DHT22;59882;45.624;11.698;2024-03-02T04:28:16;10.90;85.50
66928;DHT22;59882;45.624;11.698;2024-03-02T04:30:42;10.90;85.50
66928;DHT22;59882;45.624;11.698;2024-03-02T04:33:07;10.90;85.40
66928;DHT22;59882;45.624;11.698;2024-03-02T04:35:38;10.90;85.30
66928;DHT22;59882;45.624;11.698;2024-03-02T04:38:04;10.90;85.40
66928;DHT22;59882;45.624;11.698;2024-03-02T04:40:29;10.80;85.30
66928;DHT22;59882;45.624;11.698;2024-03-02T04:42:55;10.80;85.30
66928;DHT22;59882;45.624;11.698;2024-03-02T04:45:20;10.80;85.30
66928;DHT22;59882;45.624;11.698;2024-03-02T04:47:46;10.80;85.40
66928;DHT22;59882;45.624;11.698;2024-03-02T04:50:12;10.80;85.40
66928;DHT22;59882;45.624;11.698;2024-03-02T04:52:37;10.80;85.30
66928;DHT22;59882;45.624;11.698;2024-03-02T04:55:03;10.80;85.40
66928;DHT22;59882;45.624;11.698;2024-03-02T04:57:43;10.70;85.40
66928;DHT22;59882;45.624;11.698;2024-03-02T05:00:09;10.70;85.30
66928;DHT22;59882;45.624;11.698;2024-03-02T05:02:35;10.60;85.40
66928;DHT22;59882;45.624;11.698;2024-03-02T05:05:00;10.60;85.60
66928;DHT22;59882;45.624;11.698;2024-03-02T05:07:26;10.50;85.70
66928;DHT22;59882;45.624;11.698;2024-03-02T05:09:52;10.50;85.90
66928;DHT22;59882;45.624;11.698;2024-03-02T05:12:17;10.50;86.00
66928;DHT22;59882;45.624;11.698;2024-03-02T05:15:02;10.50;86.10
66928;DHT22;59882;45.624;11.698;2024-03-02T05:17:27;10.50;86.20
66928;DHT22;59882;45.624;11.698;2024-03-02T05:19:53;10.50;86.20
66928;DHT22;59882;45.624;11.698;2024-03-02T05:22:19;10.50;86.20
66928;DHT22;59882;45.624;11.698;2024-03-02T05:24:44;10.50;86.20
66928;DHT22;59882;45.624;11.698;2024-03-02T05:27:10;10.40;86.50
66928;DHT22;59882;45.624;11.698;2024-03-02T05:29:35;10.40;86.80
66928;DHT22;59882;45.624;11.698;2024-03-02T05:32:01;10.40;86.80
66928;DHT22;59882;45.624;11.698;2024-03-02T05:34:27;10.40;86.90
66928;DHT22;59882;45.624;11.698;2024-03-02T05:36:52;10.40;86.90
66928;DHT22;59882;45.624;11.698;2024-03-02T05:39:18;10.30;86.90
66928;DHT22;59882;45.624;11.698;2024-03-02T05:41:44;10.30;86.90
66928;DHT22;59882;45.624;11.698;2024-03-02T05:44:09;10.40;86.90
66928;DHT22;59882;45.624;11.698;2024-03-02T05:46:35;10.40;86.90
66928;DHT22;59882;45.624;11.698;2024-03-02T05:49:01;10.40;86.90
66928;DHT22;59882;45.624;11.698;2024-03-02T05:51:26;10.40;86.80
66928;DHT22;59882;45.624;11.698;2024-03-02T05:53:52;10.40;86.80
66928;DHT22;59882;45.624;11.698;2024-03-02T05:56:17;10.40;86.80
66928;DHT22;59882;45.624;11.698;2024-03-02T05:58:43;10.40;86.60
66928;DHT22;59882;45.624;11.698;2024-03-02T06:01:23;10.50;86.70
66928;DHT22;59882;45.624;11.698;2024-03-02T06:03:55;10.50;86.60
66928;DHT22;59882;45.624;11.698;2024-03-02T06:06:20;10.50;86.60
66928;DHT22;59882;45.624;11.698;2024-03-02T06:08:46;10.50;86.50
66928;DHT22;59882;45.624;11.698;2024-03-02T06:11:12;10.50;86.40
66928;DHT22;59882;45.624;11.698;2024-03-02T06:13:37;10.50;86.50
66928;DHT22;59882;45.624;11.698;2024-03-02T06:16:03;10.60;86.50
66928;DHT22;59882;45.624;11.698;2024-03-02T06:18:28;10.60;86.20
66928;DHT22;59882;45.624;11.698;2024-03-02T06:20:54;10.60;86.30
66928;DHT22;59882;45.624;11.698;2024-03-02T06:23:20;10.60;86.20
66928;DHT22;59882;45.624;11.698;2024-03-02T06:25:45;10.60;86.20
66928;DHT22;59882;45.624;11.698;2024-03-02T06:28:11;10.60;86.20
66928;DHT22;59882;45.624;11.698;2024-03-02T06:30:36;10.60;86.20
66928;DHT22;59882;45.624;11.698;2024-03-02T06:33:02;10.60;86.10
66928;DHT22;59882;45.624;11.698;2024-03-02T06:35:29;10.60;86.20
66928;DHT22;59882;45.624;11.698;2024-03-02T06:37:55;10.60;86.10
66928;DHT22;59882;45.624;11.698;2024-03-02T06:40:20;10.60;85.90
66928;DHT22;59882;45.624;11.698;2024-03-02T06:42:47;10.60;86.00
66928;DHT22;59882;45.624;11.698;2024-03-02T06:45:12;10.70;85.90
66928;DHT22;59882;45.624;11.698;2024-03-02T06:47:38;10.70;86.00
66928;DHT22;59882;45.624;11.698;2024-03-02T06:50:04;10.70;86.00
66928;DHT22;59882;45.624;11.698;2024-03-02T06:52:29;10.70;85.90
66928;DHT22;59882;45.624;11.698;2024-03-02T06:54:55;10.70;85.80
66928;DHT22;59882;45.624;11.698;2024-03-02T06:57:21;10.70;86.00
66928;DHT22;59882;45.624;11.698;2024-03-02T06:59:46;10.80;86.00
66928;DHT22;59882;45.624;11.698;2024-03-02T07:02:15;10.80;86.00
66928;DHT22;59882;45.624;11.698;2024-03-02T07:04:41;10.80;85.70
66928;DHT22;59882;45.624;11.698;2024-03-02T07:07:06;10.90;85.40
66928;DHT22;59882;45.624;11.698;2024-03-02T07:09:32;10.90;85.80
66928;DHT22;59882;45.624;11.698;2024-03-02T07:11:57;11.10;86.10
66928;DHT22;59882;45.624;11.698;2024-03-02T07:14:23;11.10;84.90
66928;DHT22;59882;45.624;11.698;2024-03-02T07:17:08;11.20;84.80
66928;DHT22;59882;45.624;11.698;2024-03-02T07:19:35;11.30;84.80
66928;DHT22;59882;45.624;11.698;2024-03-02T07:22:01;11.30;84.30
66928;DHT22;59882;45.624;11.698;2024-03-02T07:24:31;11.30;84.10
66928;DHT22;59882;45.624;11.698;2024-03-02T07:26:56;11.30;84.30
66928;DHT22;59882;45.624;11.698;2024-03-02T07:29:22;11.40;84.40
66928;DHT22;59882;45.624;11.698;2024-03-02T07:31:47;11.40;83.90
66928;DHT22;59882;45.624;11.698;2024-03-02T07:34:13;11.40;84.00
66928;DHT22;59882;45.624;11.698;2024-03-02T07:36:39;11.40;83.80
66928;DHT22;59882;45.624;11.698;2024-03-02T07:39:04;11.50;83.70
66928;DHT22;59882;45.624;11.698;2024-03-02T07:41:30;11.50;83.70
66928;DHT22;59882;45.624;11.698;2024-03-02T07:43:56;11.50;83.50
66928;DHT22;59882;45.624;11.698;2024-03-02T07:46:22;11.40;83.60
66928;DHT22;59882;45.624;11.698;2024-03-02T07:48:48;11.50;83.60
66928;DHT22;59882;45.624;11.698;2024-03-02T07:51:14;11.50;83.50
66928;DHT22;59882;45.624;11.698;2024-03-02T07:53:40;11.40;83.40
66928;DHT22;59882;45.624;11.698;2024-03-02T07:56:06;11.50;83.50
66928;DHT22;59882;45.624;11.698;2024-03-02T07:58:31;11.50;83.60
66928;DHT22;59882;45.624;11.698;2024-03-02T08:00:59;11.60;83.70
66928;DHT22;59882;45.624;11.698;2024-03-02T08:03:26;11.50;83.10
66928;DHT22;59882;45.624;11.698;2024-03-02T08:05:52;11.60;83.00
66928;DHT22;59882;45.624;11.698;2024-03-02T08:08:18;11.60;83.10
66928;DHT22;59882;45.624;11.698;2024-03-02T08:10:44;11.60;83.30
66928;DHT22;59882;45.624;11.698;2024-03-02T08:13:09;11.60;83.40
66928;DHT22;59882;45.624;11.698;2024-03-02T08:15:35;11.70;83.40
66928;DHT22;59882;45.624;11.698;2024-03-02T08:18:00;11.80;83.60
66928;DHT22;59882;45.624;11.698;2024-03-02T08:20:26;11.80;83.50
66928;DHT22;59882;45.624;11.698;2024-03-02T08:22:52;11.80;83.60
66928;DHT22;59882;45.624;11.698;2024-03-02T08:25:20;11.90;83.40
66928;DHT22;59882;45.624;11.698;2024-03-02T08:27:46;11.90;83.10
66928;DHT22;59882;45.624;11.698;2024-03-02T08:30:12;12.00;82.60
66928;DHT22;59882;45.624;11.698;2024-03-02T08:32:38;12.00;82.90
66928;DHT22;59882;45.624;11.698;2024-03-02T08:35:04;12.00;82.20
66928;DHT22;59882;45.624;11.698;2024-03-02T08:37:30;12.10;82.40
66928;DHT22;59882;45.624;11.698;2024-03-02T08:39:56;12.10;82.50
66928;DHT22;59882;45.624;11.698;2024-03-02T08:42:22;12.20;82.60
66928;DHT22;59882;45.624;11.698;2024-03-02T08:44:48;12.30;82.30
66928;DHT22;59882;45.624;11.698;2024-03-02T08:47:14;12.30;82.10
66928;DHT22;59882;45.624;11.698;2024-03-02T08:49:39;12.30;82.50
66928;DHT22;59882;45.624;11.698;2024-03-02T08:52:05;12.40;82.50
66928;DHT22;59882;45.624;11.698;2024-03-02T08:54:31;12.40;82.70
66928;DHT22;59882;45.624;11.698;2024-03-02T08:56:57;12.50;82.20
66928;DHT22;59882;45.624;11.698;2024-03-02T08:59:23;12.50;81.90
66928;DHT22;59882;45.624;11.698;2024-03-02T09:01:50;12.60;81.90
66928;DHT22;59882;45.624;11.698;2024-03-02T09:04:16;12.60;81.60
66928;DHT22;59882;45.624;11.698;2024-03-02T09:06:42;12.60;81.90
66928;DHT22;59882;45.624;11.698;2024-03-02T09:09:08;12.70;82.00
66928;DHT22;59882;45.624;11.698;2024-03-02T09:11:33;12.70;81.50
66928;DHT22;59882;45.624;11.698;2024-03-02T09:13:59;12.70;81.30
66928;DHT22;59882;45.624;11.698;2024-03-02T09:16:25;12.70;80.80
66928;DHT22;59882;45.624;11.698;2024-03-02T09:18:56;12.70;80.80
66928;DHT22;59882;45.624;11.698;2024-03-02T09:21:21;12.60;80.80
66928;DHT22;59882;45.624;11.698;2024-03-02T09:23:48;12.60;80.90
66928;DHT22;59882;45.624;11.698;2024-03-02T09:26:14;12.60;80.70
66928;DHT22;59882;45.624;11.698;2024-03-02T09:28:43;12.70;80.90
66928;DHT22;59882;45.624;11.698;2024-03-02T09:31:09;12.80;81.20
66928;DHT22;59882;45.624;11.698;2024-03-02T09:33:34;12.80;80.80
66928;DHT22;59882;45.624;11.698;2024-03-02T09:36:00;12.80;80.70
66928;DHT22;59882;45.624;11.698;2024-03-02T09:38:25;12.80;80.40
66928;DHT22;59882;45.624;11.698;2024-03-02T09:40:51;12.80;80.80
66928;DHT22;59882;45.624;11.698;2024-03-02T09:43:17;12.80;80.90
66928;DHT22;59882;45.624;11.698;2024-03-02T09:45:43;12.90;81.00
66928;DHT22;59882;45.624;11.698;2024-03-02T09:48:10;12.80;80.20
66928;DHT22;59882;45.624;11.698;2024-03-02T09:50:35;12.80;80.40
66928;DHT22;59882;45.624;11.698;2024-03-02T09:53:01;12.80;80.40
66928;DHT22;59882;45.624;11.698;2024-03-02T09:55:27;12.80;80.50
66928;DHT22;59882;45.624;11.698;2024-03-02T09:57:53;12.80;80.30
66928;DHT22;59882;45.624;11.698;2024-03-02T10:00:19;12.80;80.40
66928;DHT22;59882;45.624;11.698;2024-03-02T10:02:44;12.80;80.60
66928;DHT22;59882;45.624;11.698;2024-03-02T10:05:11;12.70;81.30
66928;DHT22;59882;45.624;11.698;2024-03-02T10:07:37;12.80;81.40
66928;DHT22;59882;45.624;11.698;2024-03-02T10:10:16;12.70;81.70
66928;DHT22;59882;45.624;11.698;2024-03-02T10:12:42;12.70;82.00
66928;DHT22;59882;45.624;11.698;2024-03-02T10:15:07;12.80;82.20
66928;DHT22;59882;45.624;11.698;2024-03-02T10:17:35;12.80;82.00
66928;DHT22;59882;45.624;11.698;2024-03-02T10:20:21;12.80;82.00
66928;DHT22;59882;45.624;11.698;2024-03-02T10:22:47;12.90;81.80
66928;DHT22;59882;45.624;11.698;2024-03-02T10:25:31;12.90;81.90
66928;DHT22;59882;45.624;11.698;2024-03-02T10:28:00;12.90;81.70
66928;DHT22;59882;45.624;11.698;2024-03-02T10:30:27;12.90;80.50
66928;DHT22;59882;45.624;11.698;2024-03-02T10:32:56;12.90;81.00
66928;DHT22;59882;45.624;11.698;2024-03-02T10:35:22;12.90;81.10
66928;DHT22;59882;45.624;11.698;2024-03-02T10:37:49;12.90;81.10
66928;DHT22;59882;45.624;11.698;2024-03-02T10:40:15;12.90;80.80
66928;DHT22;59882;45.624;11.698;2024-03-02T10:42:41;12.80;81.10
66928;DHT22;59882;45.624;11.698;2024-03-02T10:45:09;12.90;81.40
66928;DHT22;59882;45.624;11.698;2024-03-02T10:47:37;12.80;81.60
66928;DHT22;59882;45.624;11.698;2024-03-02T10:50:05;12.90;82.00
66928;DHT22;59882;45.624;11.698;2024-03-02T10:52:37;12.90;82.10
66928;DHT22;59882;45.624;11.698;2024-03-02T10:55:05;12.90;82.20
66928;DHT22;59882;45.624;11.698;2024-03-02T10:57:42;12.90;82.20
66928;DHT22;59882;45.624;11.698;2024-03-02T11:00:12;12.80;82.10
66928;DHT22;59882;45.624;11.698;2024-03-02T11:02:51;12.80;82.30
66928;DHT22;59882;45.624;11.698;2024-03-02T11:05:26;12.80;82.50
66928;DHT22;59882;45.624;11.698;2024-03-02T11:08:06;12.80;82.70
66928;DHT22;59882;45.624;11.698;2024-03-02T11:10:38;12.90;82.80
66928;DHT22;59882;45.624;11.698;2024-03-02T11:13:09;12.90;82.80
66928;DHT22;59882;45.624;11.698;2024-03-02T11:15:35;12.90;83.40
66928;DHT22;59882;45.624;11.698;2024-03-02T11:18:04;13.00;83.20
66928;DHT22;59882;45.624;11.698;2024-03-02T11:20:37;12.90;83.00
66928;DHT22;59882;45.624;11.698;2024-03-02T11:23:08;12.90;83.00
66928;DHT22;59882;45.624;11.698;2024-03-02T11:25:34;12.90;82.90
66928;DHT22;59882;45.624;11.698;2024-03-02T11:28:02;12.90;82.50
66928;DHT22;59882;45.624;11.698;2024-03-02T11:33:04;13.00;82.90
66928;DHT22;59882;45.624;11.698;2024-03-02T11:35:37;13.00;82.90
66928;DHT22;59882;45.624;11.698;2024-03-02T11:38:03;12.90;82.90
66928;DHT22;59882;45.624;11.698;2024-03-02T11:40:30;12.90;83.10
66928;DHT22;59882;45.624;11.698;2024-03-02T11:42:57;12.90;83.10
66928;DHT22;59882;45.624;11.698;2024-03-02T11:45:25;12.90;83.40
66928;DHT22;59882;45.624;11.698;2024-03-02T11:47:55;12.90;83.50
66928;DHT22;59882;45.624;11.698;2024-03-02T11:50:31;12.90;83.30
66928;DHT22;59882;45.624;11.698;2024-03-02T11:52:58;12.90;83.20
66928;DHT22;59882;45.624;11.698;2024-03-02T11:55:26;12.90;83.50
66928;DHT22;59882;45.624;11.698;2024-03-02T11:57:54;12.90;84.00
66928;DHT22;59882;45.624;11.698;2024-03-02T12:00:21;13.00;83.50
66928;DHT22;59882;45.624;11.698;2024-03-02T12:03:06;13.00;83.60
66928;DHT22;59882;45.624;11.698;2024-03-02T12:05:32;13.00;83.60
66928;DHT22;59882;45.624;11.698;2024-03-02T12:07:59;13.00;82.80
66928;DHT22;59882;45.624;11.698;2024-03-02T12:10:25;13.00;82.90
66928;DHT22;59882;45.624;11.698;2024-03-02T12:12:59;13.00;83.00
66928;DHT22;59882;45.624;11.698;2024-03-02T12:15:29;13.10;82.90
66928;DHT22;59882;45.624;11.698;2024-03-02T12:18:00;13.10;83.00
66928;DHT22;59882;45.624;11.698;2024-03-02T12:20:27;13.10;83.20
66928;DHT22;59882;45.624;11.698;2024-03-02T12:22:55;13.10;83.40
66928;DHT22;59882;45.624;11.698;2024-03-02T12:25:24;13.10;83.30
66928;DHT22;59882;45.624;11.698;2024-03-02T12:27:51;13.10;83.30
66928;DHT22;59882;45.624;11.698;2024-03-02T12:30:18;13.20;83.70
66928;DHT22;59882;45.624;11.698;2024-03-02T12:32:47;13.20;83.70
66928;DHT22;59882;45.624;11.698;2024-03-02T12:35:13;13.20;83.60
66928;DHT22;59882;45.624;11.698;2024-03-02T12:37:49;13.20;83.40
66928;DHT22;59882;45.624;11.698;2024-03-02T12:40:19;13.20;83.60
66928;DHT22;59882;45.624;11.698;2024-03-02T12:42:46;13.20;83.50
66928;DHT22;59882;45.624;11.698;2024-03-02T12:45:12;13.20;83.40
66928;DHT22;59882;45.624;11.698;2024-03-02T12:47:40;13.30;83.40
66928;DHT22;59882;45.624;11.698;2024-03-02T12:50:06;13.30;83.50
66928;DHT22;59882;45.624;11.698;2024-03-02T12:52:32;13.30;83.30
66928;DHT22;59882;45.624;11.698;2024-03-02T12:55:00;13.40;83.20
66928;DHT22;59882;45.624;11.698;2024-03-02T12:57:29;13.40;83.00
66928;DHT22;59882;45.624;11.698;2024-03-02T13:00:05;13.40;83.00
66928;DHT22;59882;45.624;11.698;2024-03-02T13:02:40;13.40;83.10
66928;DHT22;59882;45.624;11.698;2024-03-02T13:05:07;13.40;83.20
66928;DHT22;59882;45.624;11.698;2024-03-02T13:07:37;13.40;83.30
66928;DHT22;59882;45.624;11.698;2024-03-02T13:10:03;13.40;82.90
66928;DHT22;59882;45.624;11.698;2024-03-02T13:12:30;13.40;82.20
66928;DHT22;59882;45.624;11.698;2024-03-02T13:14:58;13.40;82.80
66928;DHT22;59882;45.624;11.698;2024-03-02T13:17:23;13.40;82.70
66928;DHT22;59882;45.624;11.698;2024-03-02T13:19:56;13.30;82.60
66928;DHT22;59882;45.624;11.698;2024-03-02T13:22:22;13.40;82.60
66928;DHT22;59882;45.624;11.698;2024-03-02T13:24:49;13.40;82.30
66928;DHT22;59882;45.624;11.698;2024-03-02T13:27:15;13.40;82.30
66928;DHT22;59882;45.624;11.698;2024-03-02T13:29:42;13.40;82.20
66928;DHT22;59882;45.624;11.698;2024-03-02T13:32:07;13.40;81.80
66928;DHT22;59882;45.624;11.698;2024-03-02T13:34:35;13.40;81.90
66928;DHT22;59882;45.624;11.698;2024-03-02T13:37:01;13.30;82.10
66928;DHT22;59882;45.624;11.698;2024-03-02T13:39:27;13.40;81.90
66928;DHT22;59882;45.624;11.698;2024-03-02T13:41:53;13.40;81.90
66928;DHT22;59882;45.624;11.698;2024-03-02T13:44:27;13.40;81.70
66928;DHT22;59882;45.624;11.698;2024-03-02T13:46:52;13.50;81.30
66928;DHT22;59882;45.624;11.698;2024-03-02T13:49:18;13.50;81.40
66928;DHT22;59882;45.624;11.698;2024-03-02T13:51:44;13.50;81.20
66928;DHT22;59882;45.624;11.698;2024-03-02T13:54:11;13.50;81.20
66928;DHT22;59882;45.624;11.698;2024-03-02T13:56:37;13.50;81.40
66928;DHT22;59882;45.624;11.698;2024-03-02T13:59:04;13.50;81.40
66928;DHT22;59882;45.624;11.698;2024-03-02T14:01:31;13.50;81.30
66928;DHT22;59882;45.624;11.698;2024-03-02T14:03:58;13.50;81.20
66928;DHT22;59882;45.624;11.698;2024-03-02T14:06:23;13.40;80.60
66928;DHT22;59882;45.624;11.698;2024-03-02T14:08:51;13.40;80.90
66928;DHT22;59882;45.624;11.698;2024-03-02T14:11:17;13.30;80.50
66928;DHT22;59882;45.624;11.698;2024-03-02T14:13:43;13.20;81.00
66928;DHT22;59882;45.624;11.698;2024-03-02T14:16:10;13.10;80.70
66928;DHT22;59882;45.624;11.698;2024-03-02T14:18:36;13.00;80.80
66928;DHT22;59882;45.624;11.698;2024-03-02T14:21:01;13.00;81.10
66928;DHT22;59882;45.624;11.698;2024-03-02T14:23:29;12.90;81.40
66928;DHT22;59882;45.624;11.698;2024-03-02T14:25:55;12.90;81.60
66928;DHT22;59882;45.624;11.698;2024-03-02T14:28:21;12.90;81.70
66928;DHT22;59882;45.624;11.698;2024-03-02T14:30:46;12.90;81.30
66928;DHT22;59882;45.624;11.698;2024-03-02T14:33:12;12.80;81.80
66928;DHT22;59882;45.624;11.698;2024-03-02T14:35:39;12.80;81.70
66928;DHT22;59882;45.624;11.698;2024-03-02T14:38:04;12.80;81.60
66928;DHT22;59882;45.624;11.698;2024-03-02T14:40:30;12.80;81.90
66928;DHT22;59882;45.624;11.698;2024-03-02T14:42:56;12.70;82.00
66928;DHT22;59882;45.624;11.698;2024-03-02T14:45:21;12.70;82.30
66928;DHT22;59882;45.624;11.698;2024-03-02T14:47:47;12.70;82.50
66928;DHT22;59882;45.624;11.698;2024-03-02T14:50:13;12.70;82.80
66928;DHT22;59882;45.624;11.698;2024-03-02T14:52:40;12.70;83.10
66928;DHT22;59882;45.624;11.698;2024-03-02T14:55:06;12.70;83.30
66928;DHT22;59882;45.624;11.698;2024-03-02T14:57:33;12.60;83.30
66928;DHT22;59882;45.624;11.698;2024-03-02T14:59:58;12.60;83.30
66928;DHT22;59882;45.624;11.698;2024-03-02T15:02:24;12.60;83.50
66928;DHT22;59882;45.624;11.698;2024-03-02T15:04:50;12.50;83.50
66928;DHT22;59882;45.624;11.698;2024-03-02T15:07:16;12.50;83.60
66928;DHT22;59882;45.624;11.698;2024-03-02T15:09:42;12.50;83.70
66928;DHT22;59882;45.624;11.698;2024-03-02T15:12:07;12.50;83.80
66928;DHT22;59882;45.624;11.698;2024-03-02T15:14:38;12.40;83.70
66928;DHT22;59882;45.624;11.698;2024-03-02T15:17:12;12.40;83.70
66928;DHT22;59882;45.624;11.698;2024-03-02T15:19:38;12.40;83.80
66928;DHT22;59882;45.624;11.698;2024-03-02T15:22:03;12.40;84.00